Time;durP1;ratioP1;P1;durP2;ratioP2;P2;SDS_P1;SDS_P2;PMS_P1;PMS_P2;Temp;Humidity;BMP_temperature;BMP_pressure;BME280_temperature;BME280_humidity;BME280_pressure;Samples;Min_cycle;Max_cycle;Signal;HPM_P1;HPM_P2
2023/10/13 00:01:47;;;;;;;23.77;5.55;;;;;;;-145.82;100.00;64029.03;5018532;28;20475;-80
2023/10/13 00:04:12;;;;;;;23.40;5.20;;;;;;;-145.82;100.00;64029.03;5035845;28;20048;-79
2023/10/13 00:06:37;;;;;;;18.83;5.07;;;;;;;-145.82;100.00;64029.03;5037502;28;20120;-78
2023/10/13 00:09:04;;;;;;;23.48;5.85;;;;;;;-145.82;100.00;64029.03;5017315;28;20057;-80
2023/10/13 00:11:30;;;;;;;15.52;6.53;;;;;;;-145.82;100.00;64029.03;5035546;28;20045;-79
2023/10/13 00:13:55;;;;;;;23.35;7.25;;;;;;;-145.82;100.00;64029.03;5035217;28;20083;-79
2023/10/13 00:16:22;;;;;;;27.85;8.27;;;;;;;-145.82;100.00;64029.03;5035526;28;20064;-80
2023/10/13 00:18:50;;;;;;;28.73;8.13;;;;;;;-145.82;100.00;64029.03;5035744;28;20052;-80
2023/10/13 00:21:19;;;;;;;23.45;8.95;;;;;;;-145.82;100.00;64029.03;5035258;28;20041;-80
2023/10/13 00:23:52;;;;;;;24.83;9.45;;;;;;;-145.82;100.00;64029.03;5035110;28;20107;-79
2023/10/13 00:26:24;;;;;;;26.63;8.48;;;;;;;-145.82;100.00;64029.03;5016952;28;20037;-82
2023/10/13 00:28:58;;;;;;;21.65;7.90;;;;;;;-145.82;100.00;64029.03;5035574;28;20034;-79
2023/10/13 00:31:33;;;;;;;19.05;6.00;;;;;;;-145.82;100.00;64029.03;5035065;28;20514;-78
2023/10/13 00:34:01;;;;;;;22.65;7.03;;;;;;;-145.82;100.00;64029.03;5016800;28;20037;-79
2023/10/13 00:36:27;;;;;;;20.77;6.13;;;;;;;-145.82;100.00;64029.03;5035206;28;20304;-78
2023/10/13 00:38:56;;;;;;;16.38;6.03;;;;;;;-145.82;100.00;64029.03;5034876;28;20033;-78
2023/10/13 00:41:50;;;;;;;16.30;6.25;;;;;;;-145.82;100.00;64029.03;5034961;28;20385;-77
2023/10/13 00:44:07;;;;;;;15.20;6.82;;;;;;;-145.82;100.00;64029.03;5034379;28;20045;-76
2023/10/13 00:46:35;;;;;;;11.55;7.00;;;;;;;-145.82;100.00;64029.03;5034976;28;20481;-77
2023/10/13 00:49:02;;;;;;;28.05;9.95;;;;;;;-145.82;100.00;64029.03;5034670;28;20057;-76
2023/10/13 00:51:40;;;;;;;25.25;9.65;;;;;;;-145.82;100.00;64029.03;5034488;28;20029;-77
2023/10/13 00:54:12;;;;;;;27.40;11.35;;;;;;;15.29;nan;101145.31;5034693;28;20121;-78
2023/10/13 00:56:57;;;;;;;29.00;13.35;;;;;;;15.21;nan;101150.63;5018079;28;20037;-77
2023/10/13 00:59:25;;;;;;;30.08;14.63;;;;;;;15.23;nan;101138.75;5033781;28;20044;-76
2023/10/13 01:01:55;;;;;;;38.00;15.77;;;;;;;-145.82;100.00;64029.03;5034843;28;20033;-80
2023/10/13 01:04:23;;;;;;;42.55;16.73;;;;;;;-145.82;100.00;64029.03;5034323;28;20120;-77
2023/10/13 01:06:48;;;;;;;39.20;16.27;;;;;;;15.18;nan;101132.19;5016686;28;20044;-77
2023/10/13 01:09:16;;;;;;;40.95;16.95;;;;;;;-145.82;100.00;64029.03;5034634;28;20437;-77
2023/10/13 01:11:53;;;;;;;45.58;17.73;;;;;;;-145.82;100.00;64029.03;5034102;28;20040;-78
2023/10/13 01:14:20;;;;;;;54.60;19.65;;;;;;;15.29;nan;101116.66;5034423;28;20188;-77
2023/10/13 01:16:47;;;;;;;45.63;18.15;;;;;;;15.18;nan;101118.81;5034597;28;20033;-77
2023/10/13 01:19:24;;;;;;;50.50;18.83;;;;;;;15.13;nan;101113.94;5033961;28;20068;-78
2023/10/13 01:21:54;;;;;;;52.78;19.55;;;;;;;15.12;nan;101107.75;5034216;28;20056;-78
2023/10/13 01:24:23;;;;;;;49.28;20.05;;;;;;;15.11;nan;101103.38;5033900;28;20106;-76
2023/10/13 01:26:51;;;;;;;56.50;19.65;;;;;;;15.16;nan;101105.56;5016559;28;20037;-76
2023/10/13 01:29:18;;;;;;;49.70;18.88;;;;;;;15.11;nan;101098.00;5033762;28;20107;-76
2023/10/13 01:31:45;;;;;;;43.17;17.23;;;;;;;15.10;nan;101096.31;5033812;28;20032;-79
2023/10/13 01:34:24;;;;;;;46.80;17.92;;;;;;;15.10;nan;101096.31;5033611;28;20037;-79
2023/10/13 01:36:55;;;;;;;47.95;16.40;;;;;;;15.10;nan;101090.97;5033800;28;20120;-76
2023/10/13 01:39:26;;;;;;;45.95;15.75;;;;;;;15.09;nan;101089.31;5033396;28;20087;-77
2023/10/13 01:41:55;;;;;;;38.60;14.60;;;;;;;15.09;nan;101083.94;5033949;28;20030;-76
2023/10/13 01:44:21;;;;;;;39.72;15.05;;;;;;;15.08;nan;101084.94;5016015;28;20033;-77
2023/10/13 01:46:47;;;;;;;37.80;15.07;;;;;;;15.09;nan;101077.72;5033931;28;20037;-77
2023/10/13 01:49:15;;;;;;;42.33;14.75;;;;;;;15.07;nan;101075.22;5033708;28;20462;-76
2023/10/13 01:51:41;;;;;;;38.88;13.90;;;;;;;15.08;nan;101076.06;5033986;28;20120;-76
2023/10/13 01:54:11;;;;;;;37.17;14.18;;;;;;;15.06;nan;101073.56;5033109;28;20064;-79
2023/10/13 01:56:42;;;;;;;45.38;14.20;;;;;;;15.06;nan;101064.66;5033464;28;20033;-77
2023/10/13 01:59:09;;;;;;;36.47;15.23;;;;;;;15.04;nan;101056.78;5033542;28;20044;-77
2023/10/13 02:01:35;;;;;;;42.47;15.63;;;;;;;15.04;nan;101053.28;5032931;28;20025;-77
2023/10/13 02:04:04;;;;;;;39.05;14.85;;;;;;;15.02;nan;101050.75;5033527;28;20489;-77
2023/10/13 02:06:33;;;;;;;45.10;15.82;;;;;;;15.02;nan;101037.38;5033021;28;20128;-78
2023/10/13 02:09:25;;;;;;;43.45;16.30;;;;;;;15.03;nan;101033.66;5033779;28;20130;-77
2023/10/13 02:11:54;;;;;;;38.92;15.07;;;;;;;15.01;nan;101032.16;5031775;28;20048;-77
2023/10/13 02:14:22;;;;;;;42.50;15.57;;;;;;;14.99;nan;101032.34;5032743;28;20029;-78
2023/10/13 02:16:50;;;;;;;42.92;15.70;;;;;;;14.99;nan;101029.66;5032838;28;20041;-78
2023/10/13 02:19:16;;;;;;;44.83;16.35;;;;;;;14.98;nan;101020.75;5015065;28;20038;-78
2023/10/13 02:21:44;;;;;;;42.80;16.05;;;;;;;14.97;nan;101020.91;5032730;28;20032;-78
2023/10/13 02:24:13;;;;;;;45.45;15.52;;;;;;;14.97;nan;101015.56;5032592;28;20187;-79
2023/10/13 02:26:40;;;;;;;42.28;15.35;;;;;;;14.97;nan;101002.16;5032670;28;20100;-79
2023/10/13 02:29:13;;;;;;;42.55;14.82;;;;;;;14.96;nan;100995.97;5032861;28;20052;-79
2023/10/13 02:31:40;;;;;;;38.97;16.10;;;;;;;14.96;nan;100990.63;5032754;28;20076;-82
2023/10/13 02:34:12;;;;;;;36.92;15.27;;;;;;;14.95;nan;100994.28;5032455;28;20033;-77
2023/10/13 02:36:46;;;;;;;;;;;;;;;14.95;nan;100982.75;5033124;28;20076;-78
2023/10/13 02:39:13;;;;;;;38.72;15.00;;;;;;;14.94;nan;100973.88;5032940;28;19912;-78
2023/10/13 02:41:41;;;;;;;38.97;14.75;;;;;;;14.93;nan;100976.72;5032593;28;20033;-80
2023/10/13 02:44:08;;;;;;;38.45;14.75;;;;;;;14.92;nan;100964.34;5032786;28;20034;-78
2023/10/13 02:46:39;;;;;;;37.25;14.52;;;;;;;14.91;nan;100957.28;5014769;28;20381;-77
2023/10/13 02:49:11;;;;;;;38.78;15.13;;;;;;;14.90;nan;100951.09;5032944;28;20065;-78
2023/10/13 02:51:37;;;;;;;47.78;16.35;;;;;;;14.90;nan;100942.22;5015511;28;20485;-77
2023/10/13 02:54:18;;;;;;;35.63;15.45;;;;;;;14.89;nan;100932.50;5032585;28;20034;-77
2023/10/13 02:56:56;;;;;;;38.25;15.73;;;;;;;14.87;nan;100923.78;5032821;28;20064;-76
2023/10/13 02:59:34;;;;;;;42.38;15.77;;;;;;;14.88;nan;100934.34;5032565;28;20037;-79
2023/10/13 03:02:07;;;;;;;38.58;17.13;;;;;;;14.88;nan;100931.66;5032442;28;20041;-76
2023/10/13 03:04:32;;;;;;;45.42;17.00;;;;;;;14.86;nan;100922.97;5032397;28;20029;-78
2023/10/13 03:06:59;;;;;;;36.10;15.95;;;;;;;14.85;nan;100905.19;5034642;28;20037;-76
2023/10/13 03:09:25;;;;;;;36.03;15.40;;;;;;;14.86;nan;100900.69;5033034;28;20140;-79
2023/10/13 03:11:51;;;;;;;30.70;14.43;;;;;;;14.83;nan;100907.22;5032390;28;20474;-78
2023/10/13 03:14:31;;;;;;;33.17;14.20;;;;;;;14.83;nan;100888.47;5032422;28;20029;-78
2023/10/13 03:17:15;;;;;;;32.53;13.43;;;;;;;14.81;nan;100877.09;5016401;28;20060;-78
2023/10/13 03:19:51;;;;;;;24.90;11.75;;;;;;;14.81;nan;100871.75;5032134;28;20077;-79
2023/10/13 03:22:19;;;;;;;27.23;11.73;;;;;;;14.79;nan;100863.00;5032276;28;20056;-82
2023/10/13 03:24:47;;;;;;;30.63;12.52;;;;;;;14.79;nan;100850.47;5036591;28;20061;-79
2023/10/13 03:27:17;;;;;;;30.58;11.10;;;;;;;14.78;nan;100848.78;5035934;28;20157;-79
2023/10/13 03:29:44;;;;;;;21.98;10.55;;;;;;;14.77;nan;100835.56;5036236;28;20068;-79
2023/10/13 03:32:15;;;;;;;26.48;10.18;;;;;;;14.78;nan;100847.97;5036711;28;20079;-80
2023/10/13 03:43:09;;;;;;;21.05;8.25;;;;;;;14.69;nan;100808.78;5036050;28;20045;-78
2023/10/13 03:45:40;;;;;;;15.73;7.63;;;;;;;14.66;nan;100818.00;5036346;28;20080;-79
2023/10/13 03:48:11;;;;;;;16.45;6.45;;;;;;;14.61;nan;100809.59;5017801;28;20037;-80
2023/10/13 03:50:37;;;;;;;;;;;;;;;14.55;nan;100804.88;5018607;28;20040;-79
2023/10/13 03:53:05;;;;;;;15.88;6.07;;;;;;;14.51;nan;100807.06;5035930;28;20008;-78
2023/10/13 03:55:34;;;;;;;16.27;5.78;;;;;;;14.51;nan;100798.19;5035931;28;20033;-78
2023/10/13 03:58:00;;;;;;;11.93;5.10;;;;;;;14.48;nan;100791.34;5036257;28;20041;-77
2023/10/13 04:00:29;;;;;;;14.93;6.22;;;;;;;14.48;nan;100790.50;5035915;28;20074;-78
2023/10/13 04:05:38;;;;;;;23.95;8.23;;;;;;;14.50;nan;100773.28;5004051;28;20507;-78
2023/10/13 04:16:36;;;;;;;28.40;10.65;;;;;;;14.67;nan;100770.63;5022792;28;20056;-78
2023/10/13 04:21:39;;;;;;;25.73;12.23;;;;;;;14.83;nan;100773.28;5035669;28;20033;-78
2023/10/13 04:29:46;;;;;;;31.00;15.02;;;;;;;15.12;nan;100740.59;5035645;28;20044;-80
2023/10/13 04:32:15;;;;;;;30.65;15.65;;;;;;;15.15;nan;100729.53;5035187;28;20470;-77
2023/10/13 04:34:45;;;;;;;28.48;13.68;;;;;;;15.21;nan;100729.84;5016581;28;20033;-78
2023/10/13 04:37:29;;;;;;;33.87;14.77;;;;;;;15.26;nan;100738.22;5035838;28;20049;-77
2023/10/13 04:40:11;;;;;;;26.30;13.60;;;;;;;15.29;nan;100729.84;5035094;28;20026;-78
2023/10/13 04:42:49;;;;;;;29.83;13.23;;;;;;;15.31;nan;100717.09;5017236;28;20105;-77
2023/10/13 04:50:46;;;;;;;24.45;10.50;;;;;;;15.32;nan;100716.91;5034738;28;20382;-79
2023/10/13 04:53:33;;;;;;;21.80;10.30;;;;;;;15.31;nan;100720.59;5016505;28;20116;-78
2023/10/13 05:45:23;;;;;;;19.30;5.88;;;;;;;14.43;nan;100649.94;5033874;28;20175;-81
2023/10/13 06:31:08;;;;;;;19.13;7.50;;;;;;;14.86;nan;100561.34;5033398;28;20212;-81
2023/10/13 06:33:34;;;;;;;27.00;8.80;;;;;;;14.92;nan;100557.16;5033142;28;20040;-81
2023/10/13 06:36:09;;;;;;;18.85;9.25;;;;;;;14.95;nan;100544.22;5032806;28;20037;-80
2023/10/13 06:38:38;;;;;;;32.10;12.25;;;;;;;15.07;nan;100550.03;5032741;28;20095;-81
2023/10/13 06:41:07;;;;;;;89.75;19.33;;;;;;;15.12;nan;100544.16;5015206;28;20040;-83
2023/10/13 06:43:39;;;;;;;28.15;12.93;;;;;;;15.16;nan;100554.34;5032822;28;20061;-79
2023/10/13 06:46:14;;;;;;;138.77;27.50;;;;;;;15.20;nan;100543.25;5032837;28;20119;-80
2023/10/13 06:48:40;;;;;;;33.22;14.65;;;;;;;15.24;nan;100555.31;5032644;28;20116;-80
2023/10/13 06:51:17;;;;;;;31.45;14.23;;;;;;;15.29;nan;100564.50;5032447;28;20470;-76
2023/10/13 06:53:48;;;;;;;34.08;15.48;;;;;;;15.34;nan;100531.78;5032727;28;20044;-76
2023/10/13 06:56:21;;;;;;;34.53;16.70;;;;;;;15.39;nan;100550.88;5032167;28;20029;-75
2023/10/13 06:58:47;;;;;;;32.42;17.10;;;;;;;15.45;nan;100541.25;5032067;28;20108;-76
2023/10/13 07:01:15;;;;;;;34.20;16.52;;;;;;;15.49;nan;100532.69;5032314;28;20457;-77
2023/10/13 07:03:43;;;;;;;34.67;16.20;;;;;;;15.56;nan;100559.63;5015287;28;20037;-76
2023/10/13 07:06:17;;;;;;;35.70;14.68;;;;;;;15.60;nan;100554.72;5032149;28;20033;-76
2023/10/13 07:08:46;;;;;;;31.45;13.90;;;;;;;15.65;nan;100538.94;5032426;28;20049;-75
2023/10/13 07:11:18;;;;;;;28.58;12.73;;;;;;;15.66;nan;100525.34;5014334;28;20037;-77
2023/10/13 07:13:50;;;;;;;22.50;11.77;;;;;;;15.72;nan;100518.44;5015214;28;20044;-77
2023/10/13 07:16:15;;;;;;;28.52;11.00;;;;;;;15.77;nan;100529.44;5032482;28;20485;-78
2023/10/13 07:18:52;;;;;;;23.98;10.20;;;;;;;15.82;nan;100519.06;5032353;28;20041;-78
2023/10/13 07:21:30;;;;;;;25.33;10.25;;;;;;;15.85;nan;100505.28;5032561;28;20040;-78
2023/10/13 07:24:10;;;;;;;20.15;9.45;;;;;;;15.89;nan;100521.00;5013922;28;20480;-77
2023/10/13 07:26:42;;;;;;;26.30;8.48;;;;;;;15.90;nan;100511.94;5031358;28;20474;-78
2023/10/13 07:29:11;;;;;;;26.05;8.18;;;;;;;15.90;nan;100515.47;5015010;28;20057;-79
2023/10/13 07:31:37;;;;;;;20.33;7.88;;;;;;;15.96;nan;100511.19;5031561;28;20428;-78
2023/10/13 07:34:12;;;;;;;16.40;7.60;;;;;;;15.99;nan;100510.88;5031594;28;20417;-77
2023/10/13 07:36:39;;;;;;;21.15;8.23;;;;;;;16.04;nan;100501.22;5031961;28;20042;-77
2023/10/13 07:39:21;;;;;;;17.45;7.07;;;;;;;16.03;nan;100504.09;5031446;28;20033;-75
2023/10/13 07:42:23;;;;;;;17.88;6.72;;;;;;;16.06;nan;100506.41;5014597;28;20338;-78
2023/10/13 07:44:45;;;;;;;22.50;6.70;;;;;;;16.09;nan;100498.00;5028193;28;20041;-76
2023/10/13 07:47:14;;;;;;;19.48;6.28;;;;;;;16.17;nan;100500.59;5032134;28;20073;-76
2023/10/13 07:49:39;;;;;;;15.70;5.43;;;;;;;16.22;nan;100492.81;5031563;28;20124;-76
2023/10/13 07:57:30;;;;;;;21.10;5.70;;;;;;;16.30;nan;100497.28;5032074;28;20551;-77
2023/10/13 08:00:08;;;;;;;16.65;6.80;;;;;;;16.34;nan;100495.06;5031414;28;20080;-79
2023/10/13 08:02:49;;;;;;;19.70;5.72;;;;;;;16.37;nan;100479.38;5031800;28;20453;-78
2023/10/13 08:05:39;;;;;;;18.35;5.47;;;;;;;16.45;nan;100486.53;5031530;28;20036;-77
2023/10/13 08:08:14;;;;;;;16.20;5.93;;;;;;;16.56;nan;100504.03;5031323;28;20053;-79
2023/10/13 08:10:41;;;;;;;15.60;5.00;;;;;;;16.64;nan;100500.41;5034755;28;20042;-77
2023/10/13 08:13:12;;;;;;;21.85;5.65;;;;;;;16.62;nan;100464.84;5035215;28;20034;-78
2023/10/13 08:15:40;;;;;;;21.35;5.47;;;;;;;16.66;nan;100495.66;5035303;28;20030;-78
2023/10/13 08:18:10;;;;;;;17.98;5.85;;;;;;;16.66;nan;100483.09;5035230;28;20236;-80
2023/10/13 08:20:40;;;;;;;21.77;4.88;;;;;;;16.64;nan;100462.81;5034982;28;20103;-78
2023/10/13 08:23:14;;;;;;;18.27;5.07;;;;;;;16.62;nan;100460.31;5016953;28;20128;-78
2023/10/13 08:31:29;;;;;;;23.60;6.05;;;;;;;16.52;nan;100454.38;5034752;28;20041;-79
2023/10/13 08:34:06;;;;;;;18.00;5.80;;;;;;;16.48;nan;100464.69;5034783;28;20048;-79
2023/10/13 08:36:32;;;;;;;16.38;5.68;;;;;;;16.46;nan;100463.19;5034313;28;20197;-80
2023/10/13 08:39:15;;;;;;;20.60;5.55;;;;;;;16.45;nan;100470.44;5034738;28;20044;-82
2023/10/13 08:41:58;;;;;;;23.13;5.70;;;;;;;16.45;nan;100451.63;5034266;28;20116;-77
2023/10/13 08:44:33;;;;;;;25.48;5.55;;;;;;;16.46;nan;100452.47;5034852;28;20029;-82
2023/10/13 08:47:05;;;;;;;14.65;4.63;;;;;;;16.50;nan;100443.03;5035167;28;20026;-79
2023/10/13 08:49:39;;;;;;;18.67;5.10;;;;;;;16.51;nan;100450.88;5034831;28;20084;-78
2023/10/13 08:52:06;;;;;;;16.48;4.90;;;;;;;16.55;nan;100430.66;5035009;28;20039;-80
2023/10/13 08:54:39;;;;;;;21.08;5.75;;;;;;;16.62;nan;100446.06;5034639;28;20057;-78
2023/10/13 08:59:55;;;;;;;24.02;4.85;;;;;;;16.72;nan;100409.81;5034534;28;20064;-79
2023/10/13 09:05:36;;;;;;;18.38;4.70;;;;;;;16.92;nan;100414.59;5034897;28;20132;-82
2023/10/13 09:07:55;;;;;;;18.48;5.10;;;;;;;16.99;nan;100410.13;5033491;28;20119;-80
2023/10/13 09:10:33;;;;;;;11.90;4.28;;;;;;;17.12;nan;100416.63;5033838;28;20500;-81
2023/10/13 09:13:01;;;;;;;25.98;5.15;;;;;;;17.15;nan;100408.19;5034966;28;20052;-79
2023/10/13 09:16:16;;;;;;;15.35;5.22;;;;;;;17.22;nan;100409.09;5035138;28;20038;-80
2023/10/13 09:21:54;;;;;;;15.35;4.57;;;;;;;17.33;nan;100395.13;5033705;28;20057;-82
2023/10/13 09:24:17;;;;;;;14.25;4.97;;;;;;;17.38;nan;100398.06;5028857;28;20041;-80
2023/10/13 09:26:42;;;;;;;20.33;5.10;;;;;;;17.47;nan;100395.22;5034731;28;20033;-82
2023/10/13 09:29:18;;;;;;;19.05;4.50;;;;;;;17.55;nan;100382.44;5035224;28;20033;-81
2023/10/13 09:31:48;;;;;;;19.25;4.88;;;;;;;17.66;nan;100375.72;5017280;28;20025;-81
2023/10/13 09:34:20;;;;;;;15.77;4.68;;;;;;;17.63;nan;100359.97;5017411;28;20065;-80
2023/10/13 09:36:47;;;;;;;16.33;4.43;;;;;;;17.58;nan;100359.72;5036133;28;20033;-78
2023/10/13 09:39:29;;;;;;;22.77;5.07;;;;;;;17.60;nan;100371.94;5036722;28;20025;-80
2023/10/13 09:41:57;;;;;;;17.80;4.60;;;;;;;17.66;nan;100348.81;5037353;28;20057;-80
2023/10/13 09:44:23;;;;;;;21.45;4.70;;;;;;;17.76;nan;100359.19;5035409;28;20117;-82
2023/10/13 09:46:49;;;;;;;17.13;4.43;;;;;;;17.80;nan;100347.84;5016578;28;20547;-81
2023/10/13 09:49:44;;;;;;;13.85;4.95;;;;;;;17.89;nan;100356.63;5034512;28;20120;-82
2023/10/13 09:52:18;;;;;;;17.23;5.03;;;;;;;18.04;nan;100350.28;5033956;28;20033;-80
2023/10/13 09:54:59;;;;;;;19.80;5.07;;;;;;;18.09;nan;100358.56;5034012;28;20069;-80
2023/10/13 09:57:34;;;;;;;15.95;4.63;;;;;;;18.10;nan;100341.41;5034413;28;20037;-79
2023/10/13 10:00:26;;;;;;;13.02;4.70;;;;;;;18.07;nan;100350.69;5034409;28;20125;-81
2023/10/13 10:02:58;;;;;;;21.83;5.05;;;;;;;18.27;nan;100345.41;5033895;28;20021;-81
2023/10/13 10:05:26;;;;;;;;;;;;;;;18.41;nan;100342.75;5034778;28;20080;-82
2023/10/13 10:07:58;;;;;;;21.88;5.03;;;;;;;18.65;nan;100326.00;5033179;28;19923;-77
2023/10/13 10:10:41;;;;;;;15.90;4.60;;;;;;;18.91;nan;100332.50;5034336;28;20044;-79
2023/10/13 10:13:29;;;;;;;16.00;5.05;;;;;;;19.24;nan;100312.78;5034098;28;20104;-77
2023/10/13 10:16:00;;;;;;;15.82;4.60;;;;;;;19.42;nan;100333.72;5034139;28;20025;-77
2023/10/13 10:18:25;;;;;;;22.30;4.73;;;;;;;19.49;nan;100326.44;5016654;28;20120;-76
2023/10/13 10:20:52;;;;;;;18.15;5.28;;;;;;;19.48;nan;100332.91;5033864;28;20438;-78
2023/10/13 10:23:53;;;;;;;15.90;4.95;;;;;;;19.61;nan;100331.22;5033943;28;20040;-79
2023/10/13 10:26:21;;;;;;;22.67;5.13;;;;;;;19.48;nan;100316.72;5033620;28;20021;-78
2023/10/13 10:28:47;;;;;;;15.65;4.80;;;;;;;19.46;nan;100308.00;5033721;28;20034;-81
2023/10/13 10:31:15;;;;;;;24.50;5.40;;;;;;;19.27;nan;100304.31;5033741;28;20465;-81
2023/10/13 10:33:41;;;;;;;17.90;5.38;;;;;;;19.13;nan;100292.69;5032417;28;20025;-78
2023/10/13 10:36:14;;;;;;;18.38;4.60;;;;;;;19.06;nan;100291.84;5033532;28;20041;-78
2023/10/13 10:38:58;;;;;;;16.52;4.75;;;;;;;18.96;nan;100291.44;5033723;28;20445;-79
2023/10/13 10:41:51;;;;;;;17.88;5.03;;;;;;;18.92;nan;100293.72;5033082;28;20030;-80
2023/10/13 10:44:33;;;;;;;21.40;5.22;;;;;;;18.85;nan;100292.88;5033822;28;20036;-79
2023/10/13 10:47:31;;;;;;;13.60;4.88;;;;;;;18.83;nan;100303.84;5032971;28;20025;-79
2023/10/13 10:50:07;;;;;;;21.13;5.47;;;;;;;18.92;nan;100309.91;5015937;28;20425;-81
2023/10/13 10:52:37;;;;;;;15.88;4.85;;;;;;;18.95;nan;100295.19;5016072;28;20045;-81
2023/10/13 10:55:07;;;;;;;23.13;5.93;;;;;;;18.91;nan;100291.25;5033587;28;20030;-78
2023/10/13 10:57:37;;;;;;;20.87;6.07;;;;;;;18.90;nan;100279.66;5033214;28;20072;-78
2023/10/13 11:00:14;;;;;;;18.10;5.18;;;;;;;18.84;nan;100272.38;5032982;28;20021;-79
2023/10/13 11:02:40;;;;;;;21.83;5.15;;;;;;;18.82;nan;100264.50;5033375;28;20061;-79
2023/10/13 11:05:09;;;;;;;14.38;5.38;;;;;;;18.79;nan;100278.34;5032791;28;20048;-78
2023/10/13 11:07:35;;;;;;;20.42;5.57;;;;;;;18.81;nan;100272.75;5032674;28;20496;-79
2023/10/13 11:10:31;;;;;;;20.90;5.63;;;;;;;18.79;nan;100274.84;5051016;28;20084;-78
2023/10/13 11:13:13;;;;;;;16.05;5.32;;;;;;;18.73;nan;100256.81;5053388;28;20033;-77
2023/10/13 11:15:44;;;;;;;18.75;5.55;;;;;;;18.83;nan;100263.44;5051584;28;20021;-79
2023/10/13 11:18:17;;;;;;;17.15;6.32;;;;;;;18.90;nan;100251.84;5052894;28;20028;-79
2023/10/13 11:20:46;;;;;;;16.77;4.88;;;;;;;18.99;nan;100261.41;5053023;28;20044;-79
2023/10/13 11:23:15;;;;;;;21.42;6.10;;;;;;;19.01;nan;100254.75;5051458;28;20040;-78
2023/10/13 11:25:43;;;;;;;25.05;5.35;;;;;;;19.01;nan;100248.53;5051416;28;20029;-78
2023/10/13 11:28:20;;;;;;;21.48;6.07;;;;;;;19.01;nan;100233.19;5052720;28;20040;-78
2023/10/13 11:30:52;;;;;;;16.67;4.82;;;;;;;18.99;nan;100264.91;5053298;28;20033;-80
2023/10/13 11:33:28;;;;;;;24.15;5.75;;;;;;;18.97;nan;100260.75;5052847;28;20037;-78
2023/10/13 11:38:28;;;;;;;14.32;4.68;;;;;;;19.00;nan;100271.13;5052569;28;20094;-78
2023/10/13 11:41:14;;;;;;;17.70;5.38;;;;;;;19.03;nan;100244.59;5052484;28;20029;-79
2023/10/13 11:46:19;;;;;;;17.45;5.85;;;;;;;19.07;nan;100252.25;5056615;28;20037;-80
2023/10/13 11:48:47;;;;;;;19.73;5.10;;;;;;;19.10;nan;100246.44;5055086;28;20028;-78
2023/10/13 11:51:17;;;;;;;19.63;4.88;;;;;;;19.15;nan;100252.88;5056460;28;20112;-77
2023/10/13 11:53:44;;;;;;;30.95;5.10;;;;;;;19.17;nan;100260.75;5056501;28;20075;-79
2023/10/13 11:56:10;;;;;;;20.90;5.70;;;;;;;19.14;nan;100267.38;5054797;28;20362;-78
2023/10/13 11:58:40;;;;;;;15.88;5.03;;;;;;;19.13;nan;100276.50;5056385;28;20086;-80
2023/10/13 12:11:50;;;;;;;15.88;4.68;;;;;;;18.85;nan;100252.44;5036113;28;20049;-78
2023/10/13 12:14:17;;;;;;;22.40;5.95;;;;;;;18.82;nan;100239.38;5036191;28;20040;-79
2023/10/13 12:16:52;;;;;;;28.45;6.70;;;;;;;18.82;nan;100237.53;5018216;28;20141;-77
2023/10/13 12:19:23;;;;;;;24.50;7.40;;;;;;;18.82;nan;100239.38;5035923;28;20037;-79
2023/10/13 12:21:54;;;;;;;21.75;5.50;;;;;;;18.82;nan;100237.53;5036237;28;20034;-78
2023/10/13 12:27:02;;;;;;;18.63;5.50;;;;;;;18.67;nan;100236.91;5036157;28;20378;-80
2023/10/13 12:29:34;;;;;;;16.65;5.75;;;;;;;18.64;nan;100235.44;5035754;28;20025;-77
2023/10/13 12:32:08;;;;;;;29.45;5.97;;;;;;;18.45;nan;100239.81;5035665;28;20029;-79
2023/10/13 12:51:20;;;;;;;23.55;5.70;;;;;;;18.05;nan;100217.34;5035145;28;20393;-78
2023/10/13 12:53:53;;;;;;;22.65;5.93;;;;;;;17.87;nan;100217.88;5018419;28;20039;-81
2023/10/13 12:56:26;;;;;;;18.58;5.78;;;;;;;17.74;nan;100214.13;5033871;28;20099;-81
2023/10/13 12:58:52;;;;;;;21.08;6.05;;;;;;;17.73;nan;100222.38;5017563;28;20048;-80
2023/10/13 13:01:22;;;;;;;16.73;5.50;;;;;;;17.77;nan;100229.03;5034597;28;20112;-80
2023/10/13 13:03:49;;;;;;;21.05;6.45;;;;;;;17.79;nan;100240.41;5034402;28;20030;-80
2023/10/13 13:06:29;;;;;;;25.45;6.10;;;;;;;17.83;nan;100238.16;5035094;28;20064;-80
2023/10/13 13:08:56;;;;;;;26.38;6.20;;;;;;;17.86;nan;100232.38;5035132;28;20048;-80
2023/10/13 13:11:22;;;;;;;19.08;6.05;;;;;;;17.85;nan;100253.06;5034767;28;20478;-79
2023/10/13 13:13:48;;;;;;;19.33;5.78;;;;;;;17.82;nan;100228.44;5035149;28;20029;-76
2023/10/13 13:16:14;;;;;;;21.83;5.97;;;;;;;17.80;nan;100237.53;5000750;28;20444;-79
2023/10/13 13:18:40;;;;;;;22.60;6.63;;;;;;;17.79;nan;100227.81;5017547;28;20351;-78
2023/10/13 13:21:12;;;;;;;25.92;5.50;;;;;;;17.78;nan;100220.75;5034923;28;20028;-79
2023/10/13 13:23:39;;;;;;;26.63;6.38;;;;;;;17.80;nan;100231.31;5035050;28;20087;-79
2023/10/13 13:26:15;;;;;;;17.00;5.72;;;;;;;17.82;nan;100223.88;5017057;28;20033;-77
2023/10/13 13:28:40;;;;;;;24.67;5.50;;;;;;;17.89;nan;100237.34;5035690;28;20160;-81
2023/10/13 13:31:08;;;;;;;21.10;5.80;;;;;;;17.87;nan;100250.16;5017039;28;20364;-78
2023/10/13 13:33:38;;;;;;;16.10;6.20;;;;;;;17.88;nan;100255.34;5034667;28;20104;-79
2023/10/13 13:36:04;;;;;;;16.30;5.50;;;;;;;17.97;nan;100239.88;5034922;28;20390;-81
2023/10/13 13:38:31;;;;;;;22.67;5.60;;;;;;;18.14;nan;100234.97;5034794;28;20053;-79
2023/10/13 13:40:58;;;;;;;21.60;5.53;;;;;;;18.22;nan;100242.84;5034241;28;20087;-79
2023/10/13 13:43:41;;;;;;;27.02;5.15;;;;;;;18.28;nan;100250.13;5034440;28;20054;-80
2023/10/13 13:46:09;;;;;;;23.58;5.68;;;;;;;18.26;nan;100240.59;5035049;28;20108;-79
2023/10/13 13:48:38;;;;;;;19.70;5.85;;;;;;;18.04;nan;100256.06;5034346;28;20067;-79
2023/10/13 13:51:26;;;;;;;17.80;5.78;;;;;;;17.72;nan;100272.69;5016531;28;20128;-78
2023/10/13 13:53:52;;;;;;;14.63;5.63;;;;;;;17.41;nan;100262.38;5034383;28;20116;-80
2023/10/13 13:56:18;;;;;;;20.85;5.60;;;;;;;17.19;nan;100267.00;5034265;28;20037;-80
2023/10/13 13:58:49;;;;;;;21.67;5.70;;;;;;;17.01;nan;100268.31;5034144;28;20476;-84
2023/10/13 14:01:15;;;;;;;;;;;;;;;16.89;nan;100273.38;5034672;28;20048;-82
2023/10/13 14:03:47;;;;;;;22.58;5.75;;;;;;;16.78;nan;100281.09;5034223;28;19913;-80
2023/10/13 14:06:23;;;;;;;22.77;5.85;;;;;;;16.67;nan;100291.34;5034405;28;20113;-80
2023/10/13 14:08:56;;;;;;;27.00;6.88;;;;;;;16.62;nan;100288.41;5035748;28;20049;-77
2023/10/13 14:12:25;;;;;;;24.40;6.50;;;;;;;16.56;nan;100284.63;5034209;28;20030;-77
2023/10/13 14:16:50;;;;;;;29.73;6.75;;;;;;;16.50;nan;100296.16;5033912;28;20058;-81
2023/10/13 14:19:28;;;;;;;26.48;5.68;;;;;;;16.46;nan;100283.31;5033765;28;20116;-82
2023/10/13 14:21:55;;;;;;;33.13;5.72;;;;;;;16.44;nan;100280.00;5016576;28;20354;-79
2023/10/13 14:24:27;;;;;;;36.70;7.28;;;;;;;16.39;nan;100270.66;5016083;28;20037;-78
2023/10/13 14:26:58;;;;;;;45.80;6.60;;;;;;;16.36;nan;100284.44;5016237;28;20128;-77
2023/10/13 14:29:26;;;;;;;44.40;6.20;;;;;;;16.30;nan;100279.84;5033772;28;20105;-79
2023/10/13 14:31:52;;;;;;;38.45;6.15;;;;;;;16.27;nan;100276.69;5015960;28;20400;-80
2023/10/13 14:34:17;;;;;;;37.22;6.50;;;;;;;16.22;nan;100278.09;5016828;28;20045;-79
2023/10/13 14:36:48;;;;;;;39.45;6.15;;;;;;;16.19;nan;100294.56;5033838;28;20045;-79
2023/10/13 14:39:14;;;;;;;33.72;5.80;;;;;;;16.18;nan;100292.94;5033974;28;20033;-77
2023/10/13 14:41:39;;;;;;;47.58;6.80;;;;;;;16.17;nan;100285.06;5033691;28;20036;-79
2023/10/13 14:44:05;;;;;;;33.90;5.50;;;;;;;16.16;nan;100276.16;5033555;28;20037;-79
2023/10/13 14:46:31;;;;;;;25.30;4.80;;;;;;;16.14;nan;100264.81;5033639;28;20030;-77
2023/10/13 14:48:57;;;;;;;30.85;5.50;;;;;;;16.15;nan;100249.53;5033748;28;20428;-76
2023/10/13 14:51:25;;;;;;;32.08;5.75;;;;;;;16.13;nan;100255.06;5033728;28;20033;-78
2023/10/13 14:53:55;;;;;;;40.53;6.93;;;;;;;16.18;nan;100249.13;5034084;28;20037;-83